BMA224 TXKF-KPHN
Flight info
| Callsign | BMA224 |
|---|---|
| Flight time | N/A |
| Altitude | 38000 |
| Route | BORNN1 ENAPI L457 OKONU/N0467F370 Y484 WEBBB/N0459F380 B24 SIE DCT PENSY DCT VALLO DCT ZORBO DCT COHOW DCT WTEVR DCT TWIGS |
| Aircraft | E190/M-SDE3GILORVW/S |
Departure
| Time | 2026-05-04 16:59 |
|---|---|
| Airport | L.F. Wade International Airport (TXKF) |
Arrival
| Time | N/A |
|---|---|
| Airport | St Clair County International Airport (KPHN) |
| Time | Latitude | Longitude | Altitude | Speed | Heading |
|---|---|---|---|---|---|
| 2026-05-04 16:32 | 32.36227 | -64.70307 | 23 ft | 0 kts | 247° |
| 2026-05-04 16:49 | 32.36244 | -64.70257 | 27 ft | 4 kts | 248° |
| 2026-05-04 16:50 | 32.36269 | -64.70202 | 25 ft | 4 kts | 211° |
| 2026-05-04 16:50 | 32.36285 | -64.70199 | 27 ft | 0 kts | 159° |
| 2026-05-04 16:55 | 32.36319 | -64.70009 | 25 ft | 10 kts | 69° |
| 2026-05-04 16:55 | 32.36376 | -64.69847 | 23 ft | 13 kts | 67° |
| 2026-05-04 16:56 | 32.36453 | -64.69632 | 23 ft | 15 kts | 68° |
| 2026-05-04 16:56 | 32.36641 | -64.69392 | 25 ft | 14 kts | 13° |
| 2026-05-04 16:57 | 32.36657 | -64.69343 | 25 ft | 6 kts | 102° |
| 2026-05-04 16:57 | 32.36653 | -64.69321 | 25 ft | 0 kts | 102° |
| 2026-05-04 16:58 | 32.36611 | -64.69072 | 25 ft | 64 kts | 101° |
| 2026-05-04 16:58 | 32.36484 | -64.68302 | 28 ft | 128 kts | 97° |
| 2026-05-04 16:59 | 32.36026 | -64.65624 | 918 ft | 182 kts | 98° |
| 2026-05-04 17:00 | 32.35146 | -64.58797 | 3586 ft | 221 kts | 76° |
| 2026-05-04 17:00 | 32.38711 | -64.55350 | 5215 ft | 247 kts | 7° |
| 2026-05-04 17:01 | 32.42291 | -64.54774 | 6272 ft | 280 kts | 359° |
| 2026-05-04 17:01 | 32.45928 | -64.55993 | 7822 ft | 273 kts | 311° |
| 2026-05-04 17:02 | 32.48427 | -64.59349 | 9774 ft | 274 kts | 308° |
| 2026-05-04 17:02 | 32.51145 | -64.62741 | 11100 ft | 298 kts | 308° |
| 2026-05-04 17:03 | 32.52596 | -64.64520 | 11951 ft | 302 kts | 309° |
| 2026-05-04 17:03 | 32.54066 | -64.66308 | 12912 ft | 304 kts | 308° |
| 2026-05-04 17:03 | 32.57019 | -64.69943 | 14744 ft | 310 kts | 307° |
| 2026-05-04 17:04 | 32.60053 | -64.73759 | 16288 ft | 325 kts | 306° |
| 2026-05-04 17:04 | 32.61927 | -64.78424 | 17779 ft | 319 kts | 278° |
| 2026-05-04 17:05 | 32.62896 | -64.83617 | 19205 ft | 325 kts | 277° |
| 2026-05-04 17:05 | 32.63840 | -64.88914 | 20571 ft | 331 kts | 277° |
| 2026-05-04 17:06 | 32.64880 | -64.94295 | 21887 ft | 338 kts | 276° |
| 2026-05-04 17:06 | 32.65404 | -64.97033 | 22507 ft | 342 kts | 276° |
| 2026-05-04 17:07 | 32.66454 | -65.02552 | 23653 ft | 349 kts | 276° |
| 2026-05-04 17:07 | 32.66814 | -65.04457 | 23989 ft | 351 kts | 275° |
| 2026-05-04 17:07 | 32.67526 | -65.08214 | 24642 ft | 354 kts | 275° |
| 2026-05-04 17:07 | 32.68065 | -65.11068 | 25122 ft | 356 kts | 275° |
| 2026-05-04 17:08 | 32.68607 | -65.13942 | 25606 ft | 358 kts | 275° |
| 2026-05-04 17:08 | 32.69696 | -65.19734 | 26567 ft | 361 kts | 275° |
| 2026-05-04 17:08 | 32.70244 | -65.22653 | 27023 ft | 363 kts | 275° |
| 2026-05-04 17:09 | 32.70787 | -65.25549 | 27469 ft | 365 kts | 275° |
| 2026-05-04 17:09 | 32.71337 | -65.28497 | 27910 ft | 367 kts | 275° |
| 2026-05-04 17:09 | 32.71891 | -65.31459 | 28334 ft | 369 kts | 275° |
| 2026-05-04 17:10 | 32.73005 | -65.37433 | 29144 ft | 372 kts | 275° |
| 2026-05-04 17:10 | 32.74685 | -65.46479 | 30267 ft | 376 kts | 275° |
| 2026-05-04 17:11 | 32.75241 | -65.49475 | 30567 ft | 377 kts | 275° |
| 2026-05-04 17:11 | 32.75804 | -65.52521 | 30881 ft | 378 kts | 275° |
| 2026-05-04 17:11 | 32.76930 | -65.58628 | 31517 ft | 379 kts | 274° |
| 2026-05-04 17:12 | 32.77493 | -65.61693 | 31828 ft | 380 kts | 274° |
| 2026-05-04 17:12 | 32.78616 | -65.67815 | 32428 ft | 382 kts | 274° |
| 2026-05-04 17:13 | 32.80285 | -65.76930 | 33628 ft | 375 kts | 273° |
| 2026-05-04 17:14 | 32.81924 | -65.85939 | 34586 ft | 369 kts | 273° |
| 2026-05-04 17:14 | 32.82464 | -65.88917 | 34858 ft | 368 kts | 273° |
| 2026-05-04 17:14 | 32.83534 | -65.94833 | 35349 ft | 365 kts | 272° |
| 2026-05-04 17:15 | 32.84065 | -65.97772 | 35585 ft | 363 kts | 272° |
| 2026-05-04 17:15 | 32.85112 | -66.03582 | 36044 ft | 360 kts | 272° |
| 2026-05-04 17:16 | 32.86155 | -66.09389 | 36509 ft | 358 kts | 272° |
| 2026-05-04 17:16 | 32.87702 | -66.18025 | 37197 ft | 354 kts | 272° |
| 2026-05-04 17:17 | 32.88212 | -66.20883 | 37425 ft | 352 kts | 272° |
| 2026-05-04 17:17 | 32.89721 | -66.29350 | 38087 ft | 348 kts | 272° |
| 2026-05-04 17:18 | 32.90219 | -66.32147 | 38324 ft | 347 kts | 272° |
| 2026-05-04 17:19 | 32.92242 | -66.43629 | 38206 ft | 363 kts | 272° |
| 2026-05-04 17:20 | 32.94334 | -66.55497 | 38185 ft | 369 kts | 272° |
| 2026-05-04 17:20 | 32.95904 | -66.64454 | 38188 ft | 368 kts | 272° |
| 2026-05-04 17:21 | 32.97982 | -66.76381 | 38187 ft | 367 kts | 272° |
| 2026-05-04 17:22 | 32.99009 | -66.82297 | 38192 ft | 367 kts | 272° |
| 2026-05-04 17:23 | 33.01064 | -66.94202 | 38191 ft | 367 kts | 271° |
| 2026-05-04 17:24 | 33.02592 | -67.03090 | 38188 ft | 367 kts | 271° |
| 2026-05-04 17:25 | 33.04628 | -67.14986 | 38191 ft | 366 kts | 271° |
| 2026-05-04 17:26 | 33.06644 | -67.26842 | 38189 ft | 366 kts | 271° |
| 2026-05-04 17:27 | 33.09152 | -67.41696 | 38196 ft | 365 kts | 270° |
| 2026-05-04 17:28 | 33.11135 | -67.53522 | 38196 ft | 364 kts | 270° |